Time;durP1;ratioP1;P1;durP2;ratioP2;P2;SDS_P1;SDS_P2;PMS_P1;PMS_P2;Temp;Humidity;BMP_temperature;BMP_pressure;BME280_temperature;BME280_humidity;BME280_pressure;Samples;Min_cycle;Max_cycle;Signal;HPM_P1;HPM_P2
2021/07/08 00:01:04;;;;;;;9.38;6.97;;;19.30;99.90;;;;;;5034375;28;20160;-77
2021/07/08 00:03:30;;;;;;;12.07;7.30;;;19.30;99.90;;;;;;5033816;28;20476;-76
2021/07/08 00:05:56;;;;;;;10.88;6.85;;;19.20;99.90;;;;;;5031938;28;20053;-73
2021/07/08 00:08:22;;;;;;;8.07;6.57;;;19.20;99.90;;;;;;5032396;28;20075;-76
2021/07/08 00:10:52;;;;;;;12.07;6.55;;;19.20;99.90;;;;;;5033224;28;20112;-76
2021/07/08 00:13:20;;;;;;;10.20;7.10;;;19.10;99.90;;;;;;5033994;28;20462;-77
2021/07/08 00:15:46;;;;;;;12.07;6.32;;;19.10;99.90;;;;;;5029910;28;20032;-76
2021/07/08 00:18:14;;;;;;;8.93;6.90;;;19.10;99.90;;;;;;5027196;28;20111;-72
2021/07/08 00:20:41;;;;;;;8.10;6.55;;;19.10;99.90;;;;;;5030409;28;20021;-71
2021/07/08 00:23:07;;;;;;;13.98;7.00;;;19.10;99.90;;;;;;5032506;28;20558;-72
2021/07/08 00:25:34;;;;;;;8.77;7.78;;;19.00;99.90;;;;;;5033926;28;20108;-70
2021/07/08 00:28:00;;;;;;;13.27;7.78;;;19.00;99.90;;;;;;5031389;28;20060;-72
2021/07/08 00:30:26;;;;;;;11.65;8.32;;;19.00;99.90;;;;;;5033343;28;20026;-72
2021/07/08 00:32:53;;;;;;;9.13;7.20;;;18.90;99.90;;;;;;5031817;28;20529;-71
2021/07/08 00:35:18;;;;;;;12.52;7.07;;;18.90;99.90;;;;;;5032023;28;20669;-71
2021/07/08 00:37:44;;;;;;;8.82;6.90;;;18.90;99.90;;;;;;5033759;28;20029;-70
2021/07/08 00:40:12;;;;;;;10.75;7.28;;;18.80;99.90;;;;;;5031110;28;20049;-70
2021/07/08 00:42:39;;;;;;;11.38;6.28;;;18.90;99.90;;;;;;5033968;28;20037;-71
2021/07/08 00:45:10;;;;;;;9.52;6.57;;;18.90;99.90;;;;;;5034020;28;20508;-71
2021/07/08 00:47:36;;;;;;;7.93;7.10;;;18.90;99.90;;;;;;5048921;28;20124;-72
2021/07/08 00:50:04;;;;;;;7.53;6.35;;;18.80;99.90;;;;;;5030303;28;20100;-70
2021/07/08 00:52:30;;;;;;;9.63;6.35;;;18.80;99.90;;;;;;5032756;28;20486;-70
2021/07/08 00:54:55;;;;;;;12.20;8.13;;;18.80;99.90;;;;;;5026321;28;20064;-71
2021/07/08 00:57:23;;;;;;;11.85;6.50;;;18.80;99.90;;;;;;5031527;28;20040;-71
2021/07/08 00:59:52;;;;;;;11.82;7.55;;;18.80;99.90;;;;;;5034402;28;20013;-71
2021/07/08 01:02:18;;;;;;;12.50;7.07;;;18.80;99.90;;;;;;5029416;28;20428;-71
2021/07/08 01:04:45;;;;;;;12.52;6.60;;;18.70;99.90;;;;;;5031882;28;20018;-70
2021/07/08 01:07:12;;;;;;;10.48;6.43;;;18.80;99.90;;;;;;5033856;28;20053;-72
2021/07/08 01:09:38;;;;;;;10.10;6.50;;;18.80;99.90;;;;;;5027006;28;20021;-71
2021/07/08 01:12:05;;;;;;;9.05;6.55;;;18.80;99.90;;;;;;5034543;28;20064;-72
2021/07/08 01:14:31;;;;;;;10.40;6.65;;;18.80;99.90;;;;;;5032119;28;20412;-71
2021/07/08 01:16:56;;;;;;;9.05;6.78;;;18.70;99.90;;;;;;5030037;28;20037;-72
2021/07/08 01:19:23;;;;;;;10.32;6.95;;;18.70;99.90;;;;;;5031612;28;20028;-73
2021/07/08 01:21:49;;;;;;;8.95;7.22;;;18.70;99.90;;;;;;5030423;28;20079;-70
2021/07/08 01:24:15;;;;;;;9.27;8.38;;;18.70;99.90;;;;;;5033344;28;20064;-71
2021/07/08 01:26:41;;;;;;;9.55;7.30;;;18.60;99.90;;;;;;5031512;28;20530;-71
2021/07/08 01:29:07;;;;;;;7.85;6.90;;;18.60;99.90;;;;;;5022427;28;20454;-70
2021/07/08 01:31:33;;;;;;;10.23;7.35;;;18.60;99.90;;;;;;5030828;28;20041;-70
2021/07/08 01:33:59;;;;;;;13.68;7.65;;;18.60;99.90;;;;;;5033254;28;20056;-70
2021/07/08 01:36:25;;;;;;;9.68;6.63;;;18.50;99.90;;;;;;5032078;28;20033;-70
2021/07/08 01:38:51;;;;;;;9.77;6.75;;;18.50;99.90;;;;;;5028617;28;20052;-72
2021/07/08 01:41:17;;;;;;;7.43;5.93;;;18.50;99.90;;;;;;5030203;28;20025;-71
2021/07/08 01:43:44;;;;;;;11.88;7.10;;;18.50;99.90;;;;;;5033375;28;20067;-71
2021/07/08 01:46:12;;;;;;;11.38;6.70;;;18.50;99.90;;;;;;5030420;28;20037;-72
2021/07/08 01:48:38;;;;;;;14.82;6.72;;;18.40;99.90;;;;;;5032149;28;20022;-71
2021/07/08 01:51:13;;;;;;;8.45;6.22;;;18.40;99.90;;;;;;5031359;28;20021;-70
2021/07/08 01:53:38;;;;;;;10.05;6.63;;;18.40;99.90;;;;;;5030157;28;20017;-72
2021/07/08 01:56:04;;;;;;;9.45;6.72;;;18.30;99.90;;;;;;5028701;28;20473;-73
2021/07/08 01:58:29;;;;;;;10.82;7.75;;;18.40;99.90;;;;;;5035211;28;20069;-71
2021/07/08 02:00:55;;;;;;;11.90;8.45;;;18.40;99.90;;;;;;5033948;28;20469;-71
2021/07/08 02:03:21;;;;;;;12.45;7.40;;;18.40;99.90;;;;;;5026526;28;20033;-70
2021/07/08 02:05:46;;;;;;;8.40;7.28;;;18.30;99.90;;;;;;5030595;28;20033;-71
2021/07/08 02:08:12;;;;;;;10.88;8.30;;;18.30;99.90;;;;;;5033670;28;20087;-71
2021/07/08 02:10:39;;;;;;;9.43;7.15;;;18.30;99.90;;;;;;5034070;28;20036;-70
2021/07/08 02:13:05;;;;;;;10.57;8.00;;;18.30;99.90;;;;;;5028625;28;20390;-72
2021/07/08 02:15:31;;;;;;;8.13;6.57;;;18.30;99.90;;;;;;5028730;28;20026;-76
2021/07/08 02:17:57;;;;;;;7.65;6.90;;;18.30;99.90;;;;;;5029929;28;20029;-77
2021/07/08 02:20:23;;;;;;;11.07;8.10;;;18.30;99.90;;;;;;5030912;28;20044;-76
2021/07/08 02:22:49;;;;;;;9.38;7.30;;;18.30;99.90;;;;;;5026473;28;20029;-76
2021/07/08 02:25:14;;;;;;;13.82;8.40;;;18.30;99.90;;;;;;5023083;28;20022;-75
2021/07/08 02:27:41;;;;;;;10.80;8.15;;;18.20;99.90;;;;;;5030562;28;20543;-77
2021/07/08 02:30:14;;;;;;;8.95;8.02;;;18.20;99.90;;;;;;5031978;28;20467;-76
2021/07/08 02:32:41;;;;;;;11.98;8.02;;;18.20;99.90;;;;;;5033988;28;20071;-74
2021/07/08 02:35:10;;;;;;;12.68;7.78;;;18.30;99.90;;;;;;5039681;28;20032;-76
2021/07/08 02:37:38;;;;;;;11.07;7.97;;;18.20;99.90;;;;;;5037940;28;20036;-77
2021/07/08 02:40:10;;;;;;;10.70;7.80;;;18.20;99.90;;;;;;5050585;28;20044;-76
2021/07/08 02:42:36;;;;;;;12.27;8.32;;;18.10;99.90;;;;;;5030130;28;20033;-75
2021/07/08 02:45:02;;;;;;;10.43;8.65;;;18.10;99.90;;;;;;5034835;28;20017;-76
2021/07/08 02:47:27;;;;;;;9.73;8.10;;;18.10;99.90;;;;;;5036251;28;20389;-76
2021/07/08 02:49:53;;;;;;;10.90;8.45;;;18.00;99.90;;;;;;5031617;28;20025;-75
2021/07/08 02:52:19;;;;;;;10.15;7.95;;;18.00;99.90;;;;;;5034626;28;20040;-76
2021/07/08 02:54:44;;;;;;;10.63;8.75;;;18.00;99.90;;;;;;5033271;28;20025;-76
2021/07/08 02:57:10;;;;;;;12.70;8.27;;;18.00;99.90;;;;;;5031032;28;20076;-75
2021/07/08 02:59:35;;;;;;;13.65;8.65;;;18.00;99.90;;;;;;5035253;28;20039;-76
2021/07/08 03:02:01;;;;;;;10.10;8.43;;;18.00;99.90;;;;;;5033238;28;20061;-76
2021/07/08 03:04:27;;;;;;;9.80;8.65;;;18.00;99.90;;;;;;5034683;28;20036;-76
2021/07/08 03:06:52;;;;;;;11.82;8.77;;;18.00;99.90;;;;;;5034162;28;20050;-76
2021/07/08 03:09:18;;;;;;;13.98;8.35;;;17.90;99.90;;;;;;5027614;28;20037;-76
2021/07/08 03:11:44;;;;;;;10.77;8.20;;;17.90;99.90;;;;;;5035962;28;20021;-76
2021/07/08 03:14:09;;;;;;;9.52;8.43;;;17.90;99.90;;;;;;5036039;28;21042;-76
2021/07/08 03:16:35;;;;;;;9.75;7.57;;;17.90;99.90;;;;;;5034704;28;20041;-76
2021/07/08 03:19:00;;;;;;;11.60;8.88;;;17.90;99.90;;;;;;5037806;28;20041;-76
2021/07/08 03:21:26;;;;;;;13.63;8.77;;;17.80;99.90;;;;;;5034410;28;20060;-76
2021/07/08 03:23:51;;;;;;;11.40;8.43;;;17.70;99.90;;;;;;5036811;28;20068;-76
2021/07/08 03:26:17;;;;;;;12.07;8.57;;;17.80;99.90;;;;;;5031075;28;20029;-76
2021/07/08 03:28:43;;;;;;;10.45;8.45;;;17.80;99.90;;;;;;5030921;28;20618;-77
2021/07/08 03:31:08;;;;;;;9.60;8.60;;;17.80;99.90;;;;;;5037240;28;20033;-76
2021/07/08 03:33:34;;;;;;;11.82;7.95;;;17.80;99.90;;;;;;5032419;28;20033;-76
2021/07/08 03:36:00;;;;;;;10.52;8.00;;;17.70;99.90;;;;;;5035048;28;20037;-77
2021/07/08 03:38:25;;;;;;;16.40;8.38;;;17.70;99.90;;;;;;5029459;28;20045;-76
2021/07/08 03:40:51;;;;;;;8.43;7.15;;;17.70;99.90;;;;;;5036853;28;20413;-77
2021/07/08 03:43:17;;;;;;;11.70;8.80;;;17.70;99.90;;;;;;5038035;28;20398;-76
2021/07/08 03:45:42;;;;;;;13.10;8.55;;;17.70;99.90;;;;;;5034873;28;20022;-75
2021/07/08 03:48:08;;;;;;;13.20;8.93;;;17.60;99.90;;;;;;5029561;28;20044;-71
2021/07/08 03:50:33;;;;;;;13.68;9.60;;;17.60;99.90;;;;;;5033362;28;20017;-76
2021/07/08 03:52:59;;;;;;;10.88;8.98;;;17.60;99.90;;;;;;5035862;28;20534;-77
2021/07/08 03:55:25;;;;;;;11.13;9.00;;;17.50;99.90;;;;;;5032959;28;20025;-77
2021/07/08 03:57:54;;;;;;;12.23;8.93;;;17.60;99.90;;;;;;5034350;28;20021;-75
2021/07/08 04:00:35;;;;;;;13.43;8.65;;;17.60;99.90;;;;;;5030348;28;20037;-74
2021/07/08 04:03:04;;;;;;;12.52;9.07;;;17.60;99.90;;;;;;5030028;28;20033;-75
2021/07/08 04:05:30;;;;;;;9.63;8.70;;;17.60;99.90;;;;;;5033010;28;20029;-74
2021/07/08 04:07:56;;;;;;;10.65;8.07;;;17.60;99.90;;;;;;5050007;28;20207;-76
2021/07/08 04:10:21;;;;;;;12.38;8.70;;;17.60;99.90;;;;;;5029961;28;20563;-76
2021/07/08 04:12:48;;;;;;;9.77;8.10;;;17.50;99.90;;;;;;5039542;28;20029;-74
2021/07/08 04:15:13;;;;;;;12.73;8.27;;;17.50;99.90;;;;;;5034073;28;20024;-73
2021/07/08 04:17:39;;;;;;;11.32;9.15;;;17.50;99.90;;;;;;5034528;28;20502;-77
2021/07/08 04:20:07;;;;;;;13.00;9.45;;;17.50;99.90;;;;;;5039629;28;20017;-76
2021/07/08 04:22:33;;;;;;;10.63;7.82;;;17.50;99.90;;;;;;5032479;28;20087;-76
2021/07/08 04:24:59;;;;;;;11.48;8.52;;;17.60;99.90;;;;;;5036104;28;20026;-76
2021/07/08 04:27:26;;;;;;;10.52;9.23;;;17.60;99.90;;;;;;5032288;28;20025;-76
2021/07/08 04:29:52;;;;;;;10.95;9.35;;;17.60;99.90;;;;;;5032109;28;20036;-76
2021/07/08 04:32:18;;;;;;;16.10;9.38;;;17.60;99.90;;;;;;5034882;28;20033;-77
2021/07/08 04:34:44;;;;;;;11.45;9.50;;;17.60;99.90;;;;;;5037116;28;20028;-77
2021/07/08 04:37:10;;;;;;;14.50;10.82;;;17.60;99.90;;;;;;5033289;28;20056;-76
2021/07/08 04:39:35;;;;;;;12.43;9.25;;;17.60;99.90;;;;;;5033713;28;20125;-76
2021/07/08 04:42:02;;;;;;;12.88;10.13;;;17.60;99.90;;;;;;5030938;28;20527;-75
2021/07/08 04:44:27;;;;;;;11.48;8.73;;;17.70;99.90;;;;;;5029254;28;20033;-76
2021/07/08 04:46:53;;;;;;;11.98;8.95;;;17.70;99.90;;;;;;5031937;28;20104;-76
2021/07/08 04:49:19;;;;;;;15.18;9.65;;;17.70;99.90;;;;;;5032520;28;20022;-75
2021/07/08 04:51:44;;;;;;;15.60;10.15;;;17.70;99.90;;;;;;5034910;28;20021;-75
2021/07/08 04:54:10;;;;;;;17.98;10.60;;;17.70;99.90;;;;;;5033589;28;20025;-77
2021/07/08 04:56:36;;;;;;;12.45;8.65;;;17.80;99.90;;;;;;5034147;28;20022;-76
2021/07/08 04:59:01;;;;;;;14.38;10.18;;;17.80;99.90;;;;;;5034929;28;20029;-77
2021/07/08 05:01:27;;;;;;;14.43;10.35;;;17.80;99.90;;;;;;5034810;28;20053;-76
2021/07/08 05:03:57;;;;;;;11.48;9.05;;;17.90;99.90;;;;;;5026533;28;20037;-77
2021/07/08 05:06:23;;;;;;;11.95;9.27;;;17.90;99.90;;;;;;5033253;28;20100;-76
2021/07/08 05:08:49;;;;;;;16.13;10.85;;;18.00;99.90;;;;;;5032332;28;20477;-76
2021/07/08 05:11:15;;;;;;;15.27;9.57;;;18.10;99.90;;;;;;5033566;28;20108;-76
2021/07/08 05:13:40;;;;;;;11.90;9.50;;;18.10;99.90;;;;;;5029804;28;20130;-75
2021/07/08 05:16:06;;;;;;;15.18;11.07;;;18.20;99.90;;;;;;5029526;28;20028;-76
2021/07/08 05:18:32;;;;;;;17.40;10.30;;;18.20;99.90;;;;;;5034151;28;20083;-77
2021/07/08 05:20:59;;;;;;;23.45;11.75;;;18.30;99.90;;;;;;5029436;28;20026;-76
2021/07/08 05:23:26;;;;;;;17.42;11.38;;;18.30;99.90;;;;;;5032813;28;20061;-76
2021/07/08 05:25:52;;;;;;;18.00;11.98;;;18.30;99.90;;;;;;5034422;28;20040;-76
2021/07/08 05:28:18;;;;;;;20.65;13.93;;;18.30;99.90;;;;;;5035260;28;20025;-77
2021/07/08 05:30:44;;;;;;;17.83;13.05;;;18.30;99.90;;;;;;5029050;28;20026;-76
2021/07/08 05:33:10;;;;;;;18.27;15.20;;;18.40;99.90;;;;;;5032743;28;20508;-74
2021/07/08 05:35:36;;;;;;;23.08;16.17;;;18.30;99.90;;;;;;5028055;28;20037;-76
2021/07/08 05:38:03;;;;;;;25.40;16.90;;;18.30;99.90;;;;;;5031263;28;20083;-76
2021/07/08 05:40:29;;;;;;;21.98;17.02;;;18.30;99.90;;;;;;5030356;28;20029;-75
2021/07/08 05:42:55;;;;;;;24.40;17.33;;;18.40;99.90;;;;;;5025889;28;20067;-75
2021/07/08 05:45:21;;;;;;;17.00;12.88;;;18.40;99.90;;;;;;5032879;28;20470;-76
2021/07/08 05:47:47;;;;;;;24.05;14.88;;;18.40;99.90;;;;;;5033299;28;20033;-77
2021/07/08 05:50:13;;;;;;;18.92;14.75;;;18.40;99.90;;;;;;5033008;28;20467;-76
2021/07/08 05:52:39;;;;;;;22.45;14.00;;;18.50;99.90;;;;;;5028015;28;20083;-75
2021/07/08 05:55:05;;;;;;;22.35;16.15;;;18.60;99.90;;;;;;5028662;28;20021;-76
2021/07/08 05:57:31;;;;;;;22.95;18.13;;;18.60;99.90;;;;;;5027822;28;20057;-76
2021/07/08 05:59:57;;;;;;;27.05;21.15;;;18.70;99.90;;;;;;5034443;28;20056;-76
2021/07/08 06:02:22;;;;;;;32.03;22.70;;;18.70;99.90;;;;;;5026780;28;20060;-75
2021/07/08 06:04:48;;;;;;;31.58;23.88;;;18.70;99.90;;;;;;5027769;28;20026;-76
2021/07/08 06:07:14;;;;;;;34.08;24.13;;;18.70;99.90;;;;;;5031722;28;20052;-75
2021/07/08 06:09:39;;;;;;;29.73;21.70;;;18.80;99.90;;;;;;5013919;28;20032;-71
2021/07/08 06:12:05;;;;;;;31.90;23.77;;;18.80;99.90;;;;;;5017763;28;20491;-75
2021/07/08 06:14:32;;;;;;;30.35;21.88;;;18.70;99.90;;;;;;5030179;28;20025;-75
2021/07/08 06:16:57;;;;;;;32.67;23.00;;;18.80;99.90;;;;;;5031042;28;20021;-75
2021/07/08 06:19:23;;;;;;;33.35;23.98;;;18.80;99.90;;;;;;5029467;28;20032;-75
2021/07/08 06:21:49;;;;;;;33.08;25.30;;;18.90;99.90;;;;;;5029289;28;20025;-76
2021/07/08 06:24:18;;;;;;;32.20;24.70;;;18.90;99.90;;;;;;5029695;28;20026;-76
2021/07/08 06:26:44;;;;;;;33.63;25.02;;;19.00;99.90;;;;;;5029633;28;20025;-76
2021/07/08 06:29:10;;;;;;;40.10;26.33;;;19.00;99.90;;;;;;5030129;28;20035;-71
2021/07/08 06:31:35;;;;;;;34.53;25.67;;;19.00;99.90;;;;;;5032903;28;20018;-74
2021/07/08 06:34:01;;;;;;;37.53;25.75;;;19.10;99.90;;;;;;5030291;28;20704;-73
2021/07/08 06:36:27;;;;;;;30.85;23.05;;;19.10;99.90;;;;;;5027495;28;20426;-70
2021/07/08 06:38:52;;;;;;;34.25;24.48;;;19.10;99.90;;;;;;5031166;28;20084;-71
2021/07/08 06:41:19;;;;;;;40.00;27.30;;;19.20;99.90;;;;;;5029147;28;20032;-72
2021/07/08 06:43:45;;;;;;;37.28;28.20;;;19.20;99.90;;;;;;5030370;28;20508;-75
2021/07/08 06:46:17;;;;;;;38.22;29.10;;;19.30;99.90;;;;;;5030969;28;20033;-75
2021/07/08 06:48:45;;;;;;;33.90;25.65;;;19.50;99.90;;;;;;5030880;28;20097;-74
2021/07/08 06:51:10;;;;;;;32.45;26.23;;;19.60;99.90;;;;;;5030501;28;20120;-75
2021/07/08 06:53:38;;;;;;;35.20;25.48;;;19.70;99.90;;;;;;5031384;28;20092;-76
2021/07/08 06:56:05;;;;;;;39.00;29.80;;;19.90;99.90;;;;;;5026027;28;20056;-76
2021/07/08 06:58:30;;;;;;;33.42;26.70;;;19.80;99.90;;;;;;5026501;28;20080;-75
2021/07/08 07:00:56;;;;;;;30.92;24.42;;;20.00;99.90;;;;;;5029127;28;20354;-77
2021/07/08 07:03:22;;;;;;;32.47;23.80;;;20.10;99.90;;;;;;5028326;28;20060;-76
2021/07/08 07:05:48;;;;;;;34.78;24.75;;;20.20;99.90;;;;;;5032272;28;20054;-76
2021/07/08 07:08:13;;;;;;;33.92;23.80;;;20.20;99.90;;;;;;5030155;28;20078;-74
2021/07/08 07:10:39;;;;;;;32.13;22.45;;;20.30;99.90;;;;;;5025872;28;20720;-74
2021/07/08 07:13:11;;;;;;;29.17;22.63;;;20.40;99.90;;;;;;5030000;28;20029;-76
2021/07/08 07:15:39;;;;;;;30.65;21.48;;;20.50;99.90;;;;;;5030397;28;20029;-76
2021/07/08 07:18:05;;;;;;;34.25;21.48;;;20.50;99.90;;;;;;5027939;28;20433;-76
2021/07/08 07:20:31;;;;;;;29.83;21.38;;;20.50;99.90;;;;;;5034824;28;20013;-77
2021/07/08 07:22:57;;;;;;;24.27;18.83;;;20.60;99.90;;;;;;5033425;28;20029;-77
2021/07/08 07:25:25;;;;;;;29.45;20.35;;;20.70;99.90;;;;;;5033979;28;20025;-75
2021/07/08 07:27:52;;;;;;;29.52;20.63;;;20.70;99.90;;;;;;5034214;28;20017;-77
2021/07/08 07:30:23;;;;;;;30.45;19.80;;;20.80;99.90;;;;;;5035744;28;20041;-77
2021/07/08 07:32:50;;;;;;;24.60;18.65;;;20.80;99.90;;;;;;5033571;28;20018;-76
2021/07/08 07:35:16;;;;;;;26.40;18.58;;;21.00;99.90;;;;;;5047095;28;20418;-75
2021/07/08 07:37:42;;;;;;;25.02;18.33;;;21.10;99.90;;;;;;5028252;28;20086;-75
2021/07/08 07:40:09;;;;;;;26.65;19.20;;;21.10;99.90;;;;;;5029929;28;20470;-75
2021/07/08 07:42:35;;;;;;;28.65;18.65;;;21.20;99.90;;;;;;5027048;28;20033;-71
2021/07/08 07:45:04;;;;;;;24.00;17.13;;;21.20;99.90;;;;;;5032751;28;20155;-73
2021/07/08 07:47:29;;;;;;;22.40;16.55;;;21.20;99.90;;;;;;5035187;28;20086;-71
2021/07/08 07:49:55;;;;;;;25.50;16.00;;;21.30;99.90;;;;;;5034658;28;20021;-71
2021/07/08 07:52:21;;;;;;;20.80;15.77;;;21.20;99.90;;;;;;5033343;28;20025;-70
2021/07/08 07:54:47;;;;;;;18.95;13.50;;;21.30;99.90;;;;;;5034366;28;20018;-71
2021/07/08 07:57:12;;;;;;;25.90;14.52;;;21.30;99.90;;;;;;5034774;28;20104;-71
2021/07/08 07:59:39;;;;;;;18.23;14.20;;;21.30;99.90;;;;;;5031360;28;20378;-71
2021/07/08 08:02:12;;;;;;;20.17;13.57;;;21.30;99.90;;;;;;5030296;28;20014;-70
2021/07/08 08:04:53;;;;;;;20.20;14.02;;;21.40;99.90;;;;;;5034235;28;20037;-71
2021/07/08 08:10:04;;;;;;;19.38;13.43;;;21.40;99.90;;;;;;5033390;28;20103;-71
2021/07/08 08:12:30;;;;;;;20.60;14.60;;;21.50;99.90;;;;;;5027536;28;20450;-73
2021/07/08 08:14:56;;;;;;;18.23;13.82;;;21.50;99.90;;;;;;5033564;28;20077;-71
2021/07/08 08:17:21;;;;;;;19.35;16.35;;;21.40;99.90;;;;;;5033469;28;20389;-71
2021/07/08 08:19:47;;;;;;;22.23;15.05;;;21.50;99.90;;;;;;5032478;28;20029;-71
2021/07/08 08:22:13;;;;;;;24.38;11.65;;;21.50;99.90;;;;;;5033387;28;20032;-70
2021/07/08 08:24:39;;;;;;;16.73;12.15;;;21.60;99.90;;;;;;5035763;28;20056;-70
2021/07/08 08:27:07;;;;;;;21.42;12.57;;;21.80;99.90;;;;;;5034030;28;20453;-72
2021/07/08 08:29:33;;;;;;;13.60;10.77;;;21.80;99.90;;;;;;5033087;28;20018;-70
2021/07/08 08:31:59;;;;;;;18.65;12.52;;;21.80;99.90;;;;;;5029042;28;20029;-71
2021/07/08 08:34:24;;;;;;;15.23;9.90;;;21.80;99.90;;;;;;5033293;28;20025;-75
2021/07/08 08:36:50;;;;;;;16.90;10.45;;;21.90;99.90;;;;;;5030560;28;20025;-70
2021/07/08 08:39:16;;;;;;;16.85;11.48;;;21.90;99.90;;;;;;5011489;28;20034;-70
2021/07/08 08:41:41;;;;;;;18.95;13.70;;;21.90;99.90;;;;;;5031818;28;20028;-75
2021/07/08 08:44:07;;;;;;;16.25;9.43;;;21.90;99.90;;;;;;5032625;28;20030;-74
2021/07/08 08:46:34;;;;;;;13.38;9.48;;;21.90;99.90;;;;;;5033079;28;20014;-74
2021/07/08 08:49:04;;;;;;;12.98;8.88;;;21.90;99.90;;;;;;5028170;28;20048;-74
2021/07/08 08:51:30;;;;;;;15.32;8.90;;;21.90;99.90;;;;;;5029903;28;20030;-74
2021/07/08 08:53:56;;;;;;;12.00;8.35;;;22.00;99.90;;;;;;5031373;28;20014;-70
2021/07/08 08:56:22;;;;;;;14.00;10.60;;;22.00;99.90;;;;;;5021503;28;20050;-71
2021/07/08 08:58:47;;;;;;;13.10;8.75;;;22.10;99.90;;;;;;5021922;28;20454;-72
2021/07/08 09:01:17;;;;;;;11.75;8.73;;;22.00;99.90;;;;;;5029791;28;20033;-74
2021/07/08 09:03:45;;;;;;;13.00;8.82;;;22.10;99.90;;;;;;5031176;28;20039;-71
2021/07/08 09:06:13;;;;;;;11.82;8.18;;;22.20;99.90;;;;;;5034143;28;20021;-72
2021/07/08 09:08:47;;;;;;;18.95;10.48;;;22.30;99.90;;;;;;5024345;28;20120;-72
2021/07/08 09:11:26;;;;;;;15.00;9.95;;;22.40;99.90;;;;;;5044033;28;20022;-71
2021/07/08 09:14:05;;;;;;;14.15;10.75;;;22.60;99.90;;;;;;5046482;28;20030;-74
2021/07/08 09:16:36;;;;;;;12.23;10.13;;;22.80;99.90;;;;;;5033833;28;20033;-71
2021/07/08 09:19:06;;;;;;;16.50;9.98;;;23.00;99.90;;;;;;5028646;28;20059;-75
2021/07/08 09:21:37;;;;;;;19.50;11.70;;;23.10;99.90;;;;;;5024565;28;20021;-74
2021/07/08 09:24:08;;;;;;;17.50;10.32;;;23.20;99.90;;;;;;5031737;28;20470;-70
2021/07/08 09:26:36;;;;;;;14.43;10.20;;;23.30;99.90;;;;;;5030700;28;20036;-74
2021/07/08 09:29:36;;;;;;;13.98;10.85;;;23.50;99.90;;;;;;5031975;28;20017;-73
2021/07/08 09:32:20;;;;;;;15.45;8.75;;;23.60;99.90;;;;;;5025423;28;20049;-72
2021/07/08 09:34:48;;;;;;;10.55;8.88;;;23.80;99.90;;;;;;5030644;28;20064;-71
2021/07/08 09:37:21;;;;;;;16.30;9.50;;;23.90;99.90;;;;;;5032700;28;20397;-73
2021/07/08 09:39:48;;;;;;;;;;;24.10;99.90;;;;;;5030984;28;20068;-72
2021/07/08 09:42:17;;;;;;;11.27;7.78;;;24.20;99.90;;;;;;5031422;28;19916;-72
2021/07/08 09:44:44;;;;;;;9.68;6.30;;;24.30;99.90;;;;;;5031996;28;20037;-70
2021/07/08 09:47:27;;;;;;;11.50;7.00;;;24.20;99.90;;;;;;5031815;28;20481;-69
2021/07/08 09:49:53;;;;;;;13.40;6.80;;;24.40;99.90;;;;;;5031214;28;20067;-68
2021/07/08 09:52:19;;;;;;;12.70;6.63;;;24.30;99.90;;;;;;5022369;28;20374;-70
2021/07/08 09:57:44;;;;;;;8.90;7.00;;;24.40;99.90;;;;;;5030545;28;20072;-69
2021/07/08 10:00:22;;;;;;;10.13;6.38;;;24.50;99.90;;;;;;5027929;28;20038;-69
2021/07/08 10:02:52;;;;;;;7.88;5.07;;;24.60;99.90;;;;;;5028702;28;20021;-70
2021/07/08 10:05:19;;;;;;;10.52;5.50;;;24.60;99.90;;;;;;5020924;28;20533;-69
2021/07/08 10:07:46;;;;;;;5.88;5.10;;;24.50;99.90;;;;;;5033425;28;20105;-70
2021/07/08 10:10:13;;;;;;;8.18;4.75;;;24.60;99.90;;;;;;5029559;28;20025;-71
2021/07/08 10:12:39;;;;;;;7.97;4.80;;;24.60;99.90;;;;;;5028746;28;20025;-69
2021/07/08 10:15:07;;;;;;;7.63;4.53;;;24.50;99.90;;;;;;5029628;28;20092;-69
2021/07/08 10:17:35;;;;;;;9.90;5.32;;;24.50;99.90;;;;;;5044592;28;20044;-69
2021/07/08 10:20:04;;;;;;;6.45;4.75;;;24.50;99.90;;;;;;5031850;28;20029;-69
2021/07/08 10:22:30;;;;;;;7.40;4.80;;;24.50;99.90;;;;;;5031571;28;20071;-72
2021/07/08 10:24:56;;;;;;;8.15;4.10;;;24.50;99.90;;;;;;5029974;28;20025;-74
2021/07/08 10:27:23;;;;;;;4.72;4.05;;;24.50;99.90;;;;;;5027457;28;20072;-71
2021/07/08 10:29:51;;;;;;;6.43;4.05;;;24.50;99.90;;;;;;5026873;28;20025;-73
2021/07/08 10:32:17;;;;;;;5.85;4.07;;;24.40;99.90;;;;;;5024791;28;20029;-74
2021/07/08 10:34:48;;;;;;;8.90;4.50;;;24.30;99.90;;;;;;5031561;28;20021;-70
2021/07/08 10:37:27;;;;;;;7.20;3.95;;;24.20;99.90;;;;;;5030861;28;20084;-73
2021/07/08 10:39:57;;;;;;;8.80;4.28;;;24.30;99.90;;;;;;5030178;28;20377;-69
2021/07/08 10:42:43;;;;;;;4.22;3.83;;;24.20;99.90;;;;;;5028421;28;20013;-71
2021/07/08 10:45:21;;;;;;;8.10;4.90;;;24.20;99.90;;;;;;5029798;28;20030;-69
2021/07/08 10:47:47;;;;;;;10.23;5.05;;;24.10;99.90;;;;;;5029851;28;20171;-70
2021/07/08 10:50:37;;;;;;;8.63;4.75;;;24.00;99.90;;;;;;5032646;28;20479;-72
2021/07/08 10:53:22;;;;;;;6.55;4.75;;;24.00;99.90;;;;;;5033837;28;20072;-69
2021/07/08 10:56:01;;;;;;;7.80;3.70;;;24.10;99.90;;;;;;5033924;28;20014;-69
2021/07/08 10:58:43;;;;;;;4.78;4.25;;;24.10;99.90;;;;;;5036891;28;20037;-69
2021/07/08 11:01:50;;;;;;;41.85;10.73;;;24.10;99.90;;;;;;5028004;28;20083;-69
2021/07/08 11:04:36;;;;;;;8.38;4.32;;;24.20;99.90;;;;;;5031213;28;20033;-70
2021/07/08 11:07:13;;;;;;;5.38;3.90;;;24.20;99.90;;;;;;5033190;28;20061;-73
2021/07/08 11:10:14;;;;;;;8.13;3.85;;;24.30;99.90;;;;;;5028524;28;20017;-74
2021/07/08 11:12:41;;;;;;;6.97;4.20;;;24.50;99.90;;;;;;5034170;28;20132;-69
2021/07/08 11:15:08;;;;;;;5.90;4.53;;;24.60;99.90;;;;;;5033749;28;20474;-70
2021/07/08 11:17:41;;;;;;;5.13;4.72;;;24.70;99.90;;;;;;5025625;28;20048;-71
2021/07/08 11:20:26;;;;;;;7.65;4.85;;;24.80;99.90;;;;;;5035819;28;20012;-70
2021/07/08 11:22:52;;;;;;;7.28;5.03;;;24.90;99.90;;;;;;5032455;28;20022;-70
2021/07/08 11:25:17;;;;;;;7.80;5.15;;;25.00;99.90;;;;;;5034201;28;20029;-71
2021/07/08 11:27:45;;;;;;;8.20;4.80;;;25.00;99.90;;;;;;5036887;28;20032;-74
2021/07/08 11:30:14;;;;;;;5.63;5.03;;;25.00;99.90;;;;;;5035493;28;20104;-73
2021/07/08 11:38:01;;;;;;;7.05;4.80;;;24.90;99.90;;;;;;5030768;28;20480;-74
2021/07/08 11:40:38;;;;;;;8.10;5.55;;;24.80;99.90;;;;;;5035834;28;20472;-74
2021/07/08 11:43:32;;;;;;;9.45;5.20;;;24.70;99.90;;;;;;5032995;28;20436;-74
2021/07/08 11:46:11;;;;;;;8.55;4.68;;;24.70;99.90;;;;;;5031241;28;20022;-73
2021/07/08 11:48:39;;;;;;;8.55;5.18;;;24.70;99.90;;;;;;5025085;28;20474;-74
2021/07/08 11:51:29;;;;;;;7.72;5.20;;;24.70;99.90;;;;;;5035757;28;20021;-76
2021/07/08 11:53:56;;;;;;;6.13;4.65;;;24.60;99.90;;;;;;5023238;28;20048;-71
2021/07/08 11:56:25;;;;;;;10.35;5.50;;;24.60;99.90;;;;;;5033137;28;20083;-74
2021/07/08 11:58:52;;;;;;;11.20;6.13;;;24.50;99.90;;;;;;5033252;28;20505;-74
2021/07/08 12:01:21;;;;;;;5.68;5.18;;;24.50;99.90;;;;;;5030925;28;20056;-74
2021/07/08 12:03:55;;;;;;;8.88;4.60;;;24.30;99.90;;;;;;5032908;28;20033;-74
2021/07/08 12:06:27;;;;;;;7.47;5.15;;;24.30;99.90;;;;;;5032684;28;20290;-74
2021/07/08 12:08:57;;;;;;;6.40;4.53;;;24.30;99.90;;;;;;5029032;28;20466;-74
2021/07/08 12:11:32;;;;;;;6.00;5.35;;;24.30;99.90;;;;;;5042612;28;20025;-75
2021/07/08 12:14:09;;;;;;;7.63;5.00;;;24.30;99.90;;;;;;5031650;28;20378;-73
2021/07/08 12:16:49;;;;;;;6.35;5.43;;;24.30;99.90;;;;;;5033891;28;20421;-73
2021/07/08 12:19:26;;;;;;;7.30;5.38;;;24.10;99.90;;;;;;5028142;28;20107;-74
2021/07/08 12:22:04;;;;;;;8.38;5.15;;;24.20;99.90;;;;;;5046676;28;20021;-75
2021/07/08 12:24:33;;;;;;;6.57;5.13;;;24.20;99.90;;;;;;5044137;28;20042;-75
2021/07/08 12:27:00;;;;;;;9.10;5.38;;;24.40;99.90;;;;;;5031663;28;20013;-74
2021/07/08 12:29:32;;;;;;;15.60;5.90;;;24.50;99.90;;;;;;5031877;28;20017;-73
2021/07/08 12:32:07;;;;;;;7.55;5.50;;;24.60;99.90;;;;;;5035008;28;20014;-74
2021/07/08 12:34:38;;;;;;;6.60;5.40;;;24.70;99.90;;;;;;5029421;28;20064;-75
2021/07/08 12:37:30;;;;;;;8.52;5.88;;;24.80;99.90;;;;;;5029030;28;20022;-74
2021/07/08 12:40:00;;;;;;;8.48;5.13;;;25.20;99.90;;;;;;5033259;28;20108;-74
2021/07/08 12:42:31;;;;;;;7.35;4.82;;;25.20;99.90;;;;;;5033476;28;20420;-73
2021/07/08 12:45:12;;;;;;;7.80;5.07;;;25.40;99.90;;;;;;5021087;28;20048;-70
2021/07/08 12:47:42;;;;;;;8.32;4.65;;;25.40;99.90;;;;;;5048069;28;20035;-70
2021/07/08 12:50:10;;;;;;;6.35;4.35;;;25.20;99.90;;;;;;5027883;28;20029;-73
2021/07/08 12:52:37;;;;;;;5.68;4.30;;;25.20;99.90;;;;;;5033024;28;20022;-73
2021/07/08 12:55:06;;;;;;;8.00;4.50;;;25.00;99.90;;;;;;5031156;28;20017;-71